Time;durP1;ratioP1;P1;durP2;ratioP2;P2;SDS_P1;SDS_P2;PMS_P1;PMS_P2;Temp;Humidity;BMP_temperature;BMP_pressure;BME280_temperature;BME280_humidity;BME280_pressure;Samples;Min_cycle;Max_cycle;Signal;HPM_P1;HPM_P2
2023/09/12 00:02:05;;;;;;;6.53;3.20;;;;;;;;;;5074760;28;20402;-78
2023/09/12 00:04:30;;;;;;;4.57;2.92;;;;;;;;;;5080343;28;20036;-79
2023/09/12 00:06:56;;;;;;;6.15;3.20;;;;;;;;;;5071375;28;20025;-79
2023/09/12 00:09:21;;;;;;;4.55;3.15;;;;;;;;;;5067271;28;20035;-79
2023/09/12 00:11:46;;;;;;;5.43;3.33;;;;;;;;;;5066564;28;20550;-79
2023/09/12 00:14:15;;;;;;;5.15;3.22;;;;;;;;;;5066949;28;20028;-79
2023/09/12 00:16:41;;;;;;;5.65;3.40;;;;;;;;;;5067633;28;20019;-80
2023/09/12 00:19:06;;;;;;;4.75;3.08;;;;;;;;;;5055041;28;20029;-80
2023/09/12 00:21:32;;;;;;;7.43;3.10;;;;;;;;;;5071705;28;20027;-80
2023/09/12 00:23:57;;;;;;;6.30;3.10;;;;;;;;;;5079058;28;20020;-79
2023/09/12 00:26:22;;;;;;;4.97;3.33;;;;;;;;;;5080337;28;20220;-80
2023/09/12 00:28:48;;;;;;;5.68;3.20;;;;;;;;;;5079909;28;20024;-80
2023/09/12 00:31:13;;;;;;;5.05;3.05;;;;;;;;;;5077971;28;20024;-79
2023/09/12 00:33:39;;;;;;;5.15;3.17;;;;;;;;;;5068924;28;20075;-80
2023/09/12 00:36:04;;;;;;;6.03;3.20;;;;;;;;;;5066586;28;20123;-80
2023/09/12 00:38:30;;;;;;;7.05;3.50;;;;;;;;;;5066994;28;20028;-80
2023/09/12 00:44:17;;;;;;;5.90;3.35;;;;;;;;;;5059793;28;20108;-80
2023/09/12 00:46:44;;;;;;;5.57;3.28;;;;;;;;;;5068995;28;20502;-81
2023/09/12 00:49:10;;;;;;;4.82;3.15;;;;;;;;;;5068141;28;20421;-81
2023/09/12 00:51:37;;;;;;;6.95;3.47;;;;;;;;;;5084516;28;20393;-80
2023/09/12 00:54:02;;;;;;;4.55;3.15;;;;;;;;;;5067617;28;20108;-80
2023/09/12 00:56:28;;;;;;;5.00;3.42;;;;;;;;;;5067975;28;20576;-82
2023/09/12 00:58:53;;;;;;;5.85;3.30;;;;;;;;;;5067970;28;20048;-81
2023/09/12 01:01:20;;;;;;;5.15;3.35;;;;;;;;;;5072200;28;20031;-81
2023/09/12 01:03:46;;;;;;;4.68;3.20;;;;;;;;;;5070320;28;20032;-82
2023/09/12 01:06:13;;;;;;;6.28;3.38;;;;;;;;;;5072261;28;20167;-81
2023/09/12 01:08:39;;;;;;;6.50;3.50;;;;;;;;;;5071964;28;20029;-82
2023/09/12 01:11:04;;;;;;;6.10;3.40;;;;;;;;;;5072330;28;20029;-81
2023/09/12 01:13:30;;;;;;;6.57;3.35;;;;;;;;;;5071597;28;20107;-81
2023/09/12 01:15:55;;;;;;;4.68;3.30;;;;;;;;;;5072322;28;20335;-81
2023/09/12 01:18:21;;;;;;;5.72;3.53;;;;;;;;;;5071941;28;20389;-81
2023/09/12 01:21:26;;;;;;;5.90;3.50;;;;;;;;;;5071804;28;20024;-81
2023/09/12 01:24:08;;;;;;;6.03;3.50;;;;;;;;;;5055739;28;20044;-81
2023/09/12 01:26:47;;;;;;;6.00;3.60;;;;;;;;;;5072059;28;20029;-82
2023/09/12 01:29:13;;;;;;;6.15;3.58;;;;;;;;;;5071720;28;20040;-81
2023/09/12 01:31:39;;;;;;;7.20;3.50;;;;;;;;;;5071974;28;20611;-81
2023/09/12 01:34:10;;;;;;;6.70;3.72;;;;;;;;;;5071122;28;20060;-81
2023/09/12 01:36:36;;;;;;;7.28;3.75;;;;;;;;;;5071614;28;20032;-81
2023/09/12 01:39:01;;;;;;;7.13;3.60;;;;;;;;;;5066388;28;20662;-82
2023/09/12 01:41:29;;;;;;;6.70;3.60;;;;;;;;;;5071350;28;20039;-82
2023/09/12 01:43:54;;;;;;;6.75;3.53;;;;;;;;;;5068635;28;20036;-82
2023/09/12 01:46:21;;;;;;;6.60;3.42;;;;;;;;;;5071530;28;20025;-82
2023/09/12 01:48:51;;;;;;;6.53;3.42;;;;;;;;;;5071245;28;20033;-81
2023/09/12 01:51:18;;;;;;;6.57;3.38;;;;;;;;;;5071986;28;20033;-81
2023/09/12 01:53:45;;;;;;;5.45;3.70;;;;;;;;;;5070143;28;20029;-81
2023/09/12 01:56:11;;;;;;;5.47;3.70;;;;;;;;;;5071527;28;20413;-81
2023/09/12 01:58:37;;;;;;;5.43;3.45;;;;;;;;;;5071059;28;20705;-80
2023/09/12 02:01:02;;;;;;;6.32;3.55;;;;;;;;;;5071520;28;20032;-81
2023/09/12 02:03:28;;;;;;;6.05;3.50;;;;;;;;;;5075086;28;20036;-80
2023/09/12 02:05:53;;;;;;;5.88;3.65;;;;;;;;;;5082941;28;20051;-80
2023/09/12 02:08:18;;;;;;;5.55;3.72;;;;;;;;;;5082058;28;20023;-81
2023/09/12 02:10:44;;;;;;;6.82;3.80;;;;;;;;;;5081687;28;20031;-81
2023/09/12 02:13:09;;;;;;;5.53;3.50;;;;;;;;;;5081503;28;20016;-81
2023/09/12 02:15:35;;;;;;;6.57;3.70;;;;;;;;;;5071107;28;20032;-81
2023/09/12 02:18:00;;;;;;;7.50;4.22;;;;;;;;;;5070933;28;20104;-80
2023/09/12 02:20:25;;;;;;;8.63;4.47;;;;;;;;;;5070946;28;20066;-81
2023/09/12 02:22:50;;;;;;;7.93;4.63;;;;;;;;;;5070160;28;20032;-81
2023/09/12 02:25:16;;;;;;;7.88;4.35;;;;;;;;;;5070822;28;20052;-81
2023/09/12 02:27:41;;;;;;;8.73;4.85;;;;;;;;;;5070629;28;20083;-81
2023/09/12 02:30:07;;;;;;;7.65;4.78;;;;;;;;;;5070695;28;20094;-81
2023/09/12 02:32:32;;;;;;;8.90;4.50;;;;;;;;;;5068949;28;20020;-80
2023/09/12 02:34:58;;;;;;;7.70;4.85;;;;;;;;;;5070720;28;20032;-80
2023/09/12 02:37:23;;;;;;;9.50;4.68;;;;;;;;;;5070055;28;20115;-81
2023/09/12 02:39:49;;;;;;;8.63;4.97;;;;;;;;;;5070279;28;20078;-81
2023/09/12 02:42:14;;;;;;;8.13;4.78;;;;;;;;;;5070090;28;20029;-80
2023/09/12 02:44:39;;;;;;;7.47;4.55;;;;;;;;;;5070304;28;20055;-80
2023/09/12 02:47:05;;;;;;;8.63;4.80;;;;;;;;;;5067212;28;20031;-81
2023/09/12 02:49:30;;;;;;;8.25;4.65;;;;;;;;;;5067222;28;20036;-81
2023/09/12 02:51:56;;;;;;;8.27;5.10;;;;;;;;;;5069812;28;20377;-80
2023/09/12 02:54:21;;;;;;;8.15;5.63;;;;;;;;;;5068496;28;20040;-80
2023/09/12 02:56:46;;;;;;;10.70;5.22;;;;;;;;;;5070110;28;20016;-80
2023/09/12 02:59:12;;;;;;;9.32;5.30;;;;;;;;;;5069949;28;20028;-81
2023/09/12 03:01:37;;;;;;;12.15;5.45;;;;;;;;;;5069882;28;20043;-81
2023/09/12 03:04:02;;;;;;;9.38;5.40;;;;;;;;;;5069701;28;20125;-82
2023/09/12 03:06:29;;;;;;;12.38;5.60;;;;;;;;;;5069641;28;20461;-81
2023/09/12 03:08:54;;;;;;;11.90;5.70;;;;;;;;;;5069514;28;20016;-81
2023/09/12 03:11:19;;;;;;;10.35;5.68;;;;;;;;;;5069920;28;20031;-81
2023/09/12 03:13:45;;;;;;;10.85;5.80;;;;;;;;;;5069936;28;20108;-82
2023/09/12 03:16:11;;;;;;;8.60;5.22;;;;;;;;;;5068922;28;20108;-82
2023/09/12 03:18:36;;;;;;;9.27;5.53;;;;;;;;;;5056575;28;20488;-81
2023/09/12 03:21:02;;;;;;;9.13;5.30;;;;;;;;;;5069193;28;20033;-81
2023/09/12 03:23:28;;;;;;;9.38;5.75;;;;;;;;;;5068007;28;20043;-81
2023/09/12 03:25:53;;;;;;;13.88;6.40;;;;;;;;;;5069785;28;20086;-81
2023/09/12 03:28:18;;;;;;;8.50;5.43;;;;;;;;;;5067705;28;20867;-81
2023/09/12 03:30:43;;;;;;;9.70;5.55;;;;;;;;;;5062384;28;20564;-81
2023/09/12 03:33:09;;;;;;;9.80;5.75;;;;;;;;;;5056670;28;20469;-81
2023/09/12 03:35:35;;;;;;;9.77;5.63;;;;;;;;;;5059931;28;20094;-81
2023/09/12 03:38:00;;;;;;;12.63;5.93;;;;;;;;;;5063660;28;20094;-81
2023/09/12 03:40:29;;;;;;;8.35;5.63;;;;;;;;;;5069269;28;20029;-81
2023/09/12 03:42:54;;;;;;;11.27;5.68;;;;;;;;;;5069403;28;20496;-81
2023/09/12 03:45:19;;;;;;;10.00;5.90;;;;;;;;;;5069393;28;20040;-81
2023/09/12 03:47:46;;;;;;;10.20;5.68;;;;;;;;;;5068869;28;20468;-81
2023/09/12 03:50:13;;;;;;;7.95;5.13;;;;;;;;;;5069250;28;20032;-80
2023/09/12 03:52:38;;;;;;;10.50;6.00;;;;;;;;;;5068442;28;20024;-81
2023/09/12 03:55:04;;;;;;;10.75;5.80;;;;;;;;;;5068737;28;20040;-80
2023/09/12 03:57:29;;;;;;;11.27;5.82;;;;;;;;;;5066774;28;20055;-81
2023/09/12 03:59:55;;;;;;;9.43;5.80;;;;;;;;;;5068673;28;20543;-81
2023/09/12 04:02:20;;;;;;;9.43;5.50;;;;;;;;;;5068673;28;20036;-81
2023/09/12 04:04:45;;;;;;;10.13;5.90;;;;;;;;;;5069057;28;20051;-82
2023/09/12 04:07:10;;;;;;;10.65;5.88;;;;;;;;;;5061036;28;20514;-81
2023/09/12 04:09:36;;;;;;;12.73;6.28;;;;;;;;;;5063248;28;20028;-82
2023/09/12 04:12:02;;;;;;;9.60;5.95;;;;;;;;;;5068985;28;20043;-80
2023/09/12 04:14:27;;;;;;;9.43;6.10;;;;;;;;;;5069199;28;20024;-82
2023/09/12 04:16:52;;;;;;;10.20;5.43;;;;;;;;;;5068850;28;20012;-82
2023/09/12 04:19:18;;;;;;;10.15;5.32;;;;;;;;;;5068645;28;20028;-83
2023/09/12 04:21:43;;;;;;;9.60;5.63;;;;;;;;;;5068834;28;20024;-81
2023/09/12 04:24:09;;;;;;;9.65;5.70;;;;;;;;;;5068614;28;20025;-81
2023/09/12 04:26:35;;;;;;;9.63;5.47;;;;;;;;;;5068367;28;20043;-81
2023/09/12 04:29:00;;;;;;;7.78;5.22;;;;;;;;;;5068679;28;20178;-81
2023/09/12 04:31:25;;;;;;;11.77;5.60;;;;;;;;;;5068687;28;20096;-82
2023/09/12 04:33:52;;;;;;;7.93;5.53;;;;;;;;;;5068939;28;20529;-81
2023/09/12 04:36:18;;;;;;;7.28;5.22;;;;;;;;;;5071237;28;20031;-82
2023/09/12 04:38:43;;;;;;;9.18;5.93;;;;;;;;;;5062250;28;20385;-81
2023/09/12 04:41:14;;;;;;;9.63;5.70;;;;;;;;;;5061189;28;20111;-81
2023/09/12 04:43:40;;;;;;;8.68;5.53;;;;;;;;;;5065980;28;20029;-81
2023/09/12 04:46:06;;;;;;;12.70;5.70;;;;;;;;;;5071792;28;20105;-82
2023/09/12 04:48:31;;;;;;;12.30;6.65;;;;;;;;;;5072038;28;20036;-82
2023/09/12 04:50:57;;;;;;;12.13;6.28;;;;;;;;;;5072708;28;20039;-81
2023/09/12 04:53:22;;;;;;;11.30;6.80;;;;;;;;;;5072481;28;20029;-81
2023/09/12 04:55:47;;;;;;;12.23;6.55;;;;;;;;;;5072046;28;20024;-81
2023/09/12 04:58:13;;;;;;;11.95;6.80;;;;;;;;;;5072634;28;20501;-81
2023/09/12 05:00:39;;;;;;;11.07;6.90;;;;;;;;;;5072079;28;20024;-81
2023/09/12 05:03:05;;;;;;;14.80;7.32;;;;;;;;;;5071946;28;20113;-81
2023/09/12 05:05:30;;;;;;;9.75;6.15;;;;;;;;;;5070533;28;20048;-81
2023/09/12 05:07:56;;;;;;;10.38;6.38;;;;;;;;;;5071755;28;20102;-81
2023/09/12 05:10:21;;;;;;;10.68;6.63;;;;;;;;;;5066553;28;20025;-81
2023/09/12 05:12:46;;;;;;;10.43;6.70;;;;;;;;;;5054089;28;20039;-81
2023/09/12 05:15:12;;;;;;;10.10;6.35;;;;;;;;;;5070107;28;20028;-81
2023/09/12 05:17:37;;;;;;;13.05;6.80;;;;;;;;;;5071950;28;20357;-81
2023/09/12 05:20:06;;;;;;;13.43;7.13;;;;;;;;;;5071715;28;20020;-81
2023/09/12 05:22:31;;;;;;;13.77;6.50;;;;;;;;;;5072826;28;20033;-81
2023/09/12 05:24:57;;;;;;;15.07;6.60;;;;;;;;;;5073253;28;20036;-81
2023/09/12 05:27:22;;;;;;;13.30;6.28;;;;;;;;;;5071599;28;20020;-81
2023/09/12 05:29:47;;;;;;;12.38;6.47;;;;;;;;;;5071692;28;20042;-81
2023/09/12 05:32:13;;;;;;;12.27;6.75;;;;;;;;;;5071496;28;20028;-82
2023/09/12 05:34:38;;;;;;;11.55;5.70;;;;;;;;;;5071212;28;20099;-82
2023/09/12 05:37:04;;;;;;;10.48;6.43;;;;;;;;;;5071771;28;20081;-82
2023/09/12 05:39:29;;;;;;;11.57;7.05;;;;;;;;;;5070472;28;20384;-81
2023/09/12 05:41:54;;;;;;;13.50;7.30;;;;;;;;;;5062529;28;20090;-81
2023/09/12 05:44:19;;;;;;;10.98;6.40;;;;;;;;;;5068187;28;20566;-81
2023/09/12 05:46:46;;;;;;;14.77;6.72;;;;;;;;;;5070319;28;20048;-81
2023/09/12 05:49:12;;;;;;;10.88;6.50;;;;;;;;;;5071291;28;20020;-81
2023/09/12 05:51:37;;;;;;;13.48;6.65;;;;;;;;;;5071288;28;20032;-81
2023/09/12 05:54:03;;;;;;;12.77;7.32;;;;;;;;;;5068744;28;20075;-81
2023/09/12 05:56:28;;;;;;;18.63;7.10;;;;;;;;;;5071538;28;20473;-81
2023/09/12 05:58:54;;;;;;;17.38;7.30;;;;;;;;;;5070051;28;20123;-81
2023/09/12 06:01:19;;;;;;;11.55;6.82;;;;;;;;;;5070537;28;20416;-82
2023/09/12 06:03:45;;;;;;;13.07;7.13;;;;;;;;;;5070517;28;20075;-81
2023/09/12 06:06:11;;;;;;;14.48;7.22;;;;;;;;;;5071114;28;20389;-81
2023/09/12 06:08:37;;;;;;;21.90;7.30;;;;;;;;;;5068144;28;20039;-82
2023/09/12 06:11:03;;;;;;;12.45;6.32;;;;;;;;;;5066224;28;20020;-82
2023/09/12 06:13:29;;;;;;;12.10;6.38;;;;;;;;;;5070230;28;20028;-81
2023/09/12 06:15:54;;;;;;;13.40;6.65;;;;;;;;;;5071341;28;20024;-82
2023/09/12 06:18:20;;;;;;;12.40;7.13;;;;;;;;;;5070376;28;20064;-82
2023/09/12 06:20:46;;;;;;;11.52;7.15;;;;;;;;;;5069657;28;20028;-81
2023/09/12 06:23:11;;;;;;;11.65;7.03;;;;;;;;;;5069519;28;20089;-81
2023/09/12 06:25:36;;;;;;;16.90;7.18;;;;;;;;;;5071747;28;20081;-82
2023/09/12 06:28:02;;;;;;;13.60;7.53;;;;;;;;;;5074821;28;20032;-82
2023/09/12 06:30:27;;;;;;;12.43;7.38;;;;;;;;;;5065068;28;20035;-81
2023/09/12 06:32:53;;;;;;;11.52;7.65;;;;;;;;;;5071689;28;20029;-81
2023/09/12 06:35:18;;;;;;;11.63;7.72;;;;;;;;;;5073780;28;20131;-82
2023/09/12 06:37:44;;;;;;;16.65;7.63;;;;;;;;;;5069377;28;20029;-81
2023/09/12 06:40:09;;;;;;;12.82;7.82;;;;;;;;;;5064714;28;20047;-81
2023/09/12 06:42:35;;;;;;;15.65;7.30;;;;;;;;;;5066352;28;20029;-81
2023/09/12 06:45:00;;;;;;;16.80;8.40;;;;;;;;;;5063601;28;20043;-81
2023/09/12 06:47:25;;;;;;;14.63;7.95;;;;;;;;;;5064463;28;20444;-81
2023/09/12 06:49:51;;;;;;;18.60;7.97;;;;;;;;;;5062745;28;20550;-82
2023/09/12 06:52:16;;;;;;;16.63;9.05;;;;;;;;;;5067691;28;20422;-82
2023/09/12 06:54:41;;;;;;;15.20;8.60;;;;;;;;;;5065975;28;20020;-81
2023/09/12 06:57:07;;;;;;;19.73;9.43;;;;;;;;;;5069095;28;20050;-82
2023/09/12 06:59:32;;;;;;;15.50;8.80;;;;;;;;;;5071937;28;20111;-81
2023/09/12 07:01:58;;;;;;;19.65;8.63;;;;;;;;;;5067135;28;20480;-86
2023/09/12 07:04:24;;;;;;;15.05;9.05;;;;;;;;;;5068104;28;20039;-86
2023/09/12 07:06:49;;;;;;;16.20;8.73;;;;;;;;;;5060482;28;20087;-86
2023/09/12 07:09:14;;;;;;;17.73;8.52;;;;;;;;;;5066298;28;20028;-87
2023/09/12 07:11:43;;;;;;;17.20;9.25;;;;;;;;;;5061857;28;20041;-87
2023/09/12 07:14:11;;;;;;;16.30;9.50;;;;;;;;;;5070973;28;20099;-83
2023/09/12 07:16:37;;;;;;;16.50;9.88;;;;;;;;;;5081503;28;20043;-88
2023/09/12 07:19:05;;;;;;;18.05;9.32;;;;;;;;;;5078334;28;20024;-83
2023/09/12 07:21:32;;;;;;;18.00;9.75;;;;;;;;;;5067792;28;20115;-82
2023/09/12 07:23:57;;;;;;;17.88;9.48;;;;;;;;;;5059110;28;20392;-84
2023/09/12 07:26:23;;;;;;;21.38;10.10;;;;;;;;;;5069255;28;20017;-83
2023/09/12 07:28:48;;;;;;;18.42;10.15;;;;;;;;;;5069499;28;20580;-83
2023/09/12 07:31:14;;;;;;;14.48;9.88;;;;;;;;;;5072044;28;20020;-82
2023/09/12 07:33:40;;;;;;;19.83;10.18;;;;;;;;;;5076342;28;20458;-82
2023/09/12 07:36:05;;;;;;;24.55;10.30;;;;;;;;;;5073547;28;20097;-87
2023/09/12 07:38:31;;;;;;;23.10;9.32;;;;;;;;;;5072663;28;20036;-85
2023/09/12 07:40:57;;;;;;;14.40;9.15;;;;;;;;;;5062057;28;20492;-87
2023/09/12 07:43:23;;;;;;;15.57;9.80;;;;;;;;;;5064567;28;20032;-86
2023/09/12 07:45:49;;;;;;;18.58;10.05;;;;;;;;;;5071521;28;20016;-87
2023/09/12 07:48:15;;;;;;;19.17;9.27;;;;;;;;;;5059187;28;20024;-88
2023/09/12 07:50:41;;;;;;;18.20;10.43;;;;;;;;;;5069057;28;20047;-89
2023/09/12 07:53:06;;;;;;;16.90;10.10;;;;;;;;;;5059230;28;20062;-89
2023/09/12 07:55:36;;;;;;;17.75;10.68;;;;;;;;;;5069041;28;20033;-84
2023/09/12 07:58:02;;;;;;;21.33;10.20;;;;;;;;;;5068862;28;20119;-86
2023/09/12 08:00:27;;;;;;;18.83;9.88;;;;;;;;;;5069253;28;20654;-86
2023/09/12 08:02:53;;;;;;;18.80;10.40;;;;;;;;;;5068929;28;20020;-86
2023/09/12 08:05:19;;;;;;;20.58;10.15;;;;;;;;;;5068798;28;20028;-84
2023/09/12 08:07:44;;;;;;;20.17;10.38;;;;;;;;;;5068654;28;20497;-88
2023/09/12 08:10:09;;;;;;;22.08;10.82;;;;;;;;;;5064786;28;20381;-88
2023/09/12 08:12:38;;;;;;;20.95;11.60;;;;;;;;;;5066449;28;20032;-87
2023/09/12 08:15:04;;;;;;;19.67;10.63;;;;;;;;;;5073601;28;20028;-87
2023/09/12 08:17:29;;;;;;;21.33;10.57;;;;;;;;;;5069963;28;20074;-88
2023/09/12 08:19:55;;;;;;;20.30;10.80;;;;;;;;;;5068944;28;20036;-88
2023/09/12 08:22:20;;;;;;;21.55;10.60;;;;;;;;;;5070952;28;20043;-88
2023/09/12 08:24:45;;;;;;;20.67;10.85;;;;;;;;;;5081495;28;20024;-87
2023/09/12 08:27:11;;;;;;;18.77;10.40;;;;;;;;;;5077219;28;20041;-83
2023/09/12 08:29:36;;;;;;;16.90;10.15;;;;;;;;;;5085470;28;20020;-81
2023/09/12 08:32:02;;;;;;;19.98;10.27;;;;;;;;;;5092738;28;20402;-82
2023/09/12 08:34:28;;;;;;;17.50;9.60;;;;;;;;;;5083152;28;20048;-81
2023/09/12 08:36:54;;;;;;;20.80;10.20;;;;;;;;;;5093309;28;20374;-85
2023/09/12 08:39:24;;;;;;;17.13;9.40;;;;;;;;;;5076683;28;21065;-86
2023/09/12 08:41:51;;;;;;;18.02;10.32;;;;;;;;;;5070894;28;20070;-84
2023/09/12 08:44:17;;;;;;;20.05;10.25;;;;;;;;;;5088278;28;20058;-84
2023/09/12 08:46:44;;;;;;;21.33;10.60;;;;;;;;;;5084000;28;20119;-84
2023/09/12 08:49:10;;;;;;;18.88;9.40;;;;;;;;;;5071508;28;20024;-83
2023/09/12 08:51:39;;;;;;;14.73;9.20;;;;;;;;;;5080248;28;20047;-84
2023/09/12 08:54:05;;;;;;;15.88;9.68;;;;;;;;;;5089145;28;20020;-85
2023/09/12 08:56:32;;;;;;;15.13;9.57;;;;;;;;;;5088682;28;20024;-85
2023/09/12 08:58:59;;;;;;;23.58;10.65;;;;;;;;;;5086320;28;20067;-85
2023/09/12 09:01:27;;;;;;;24.23;10.80;;;;;;;;;;5091225;28;20020;-85
2023/09/12 09:03:53;;;;;;;19.63;9.82;;;;;;;;;;5082963;28;20378;-84
2023/09/12 09:06:20;;;;;;;17.65;9.43;;;;;;;;;;5084435;28;20048;-85
2023/09/12 09:08:46;;;;;;;20.77;9.63;;;;;;;;;;5076145;28;20105;-83
2023/09/12 09:11:11;;;;;;;15.80;9.40;;;;;;;;;;5074421;28;20461;-83
2023/09/12 09:13:37;;;;;;;18.05;9.32;;;;;;;;;;5081996;28;20612;-84
2023/09/12 09:16:15;;;;;;;19.98;9.52;;;;;;;;;;5087000;28;20084;-84
2023/09/12 09:19:00;;;;;;;20.27;9.35;;;;;;;;;;5089594;28;20061;-84
2023/09/12 09:21:33;;;;;;;14.53;8.77;;;;;;;;;;5086660;28;20333;-82
2023/09/12 09:24:06;;;;;;;18.50;9.02;;;;;;;;;;5083073;28;20328;-83
2023/09/12 09:26:50;;;;;;;16.25;8.90;;;;;;;;;;5083126;28;20353;-82
2023/09/12 09:29:17;;;;;;;21.08;11.40;;;;;;;;;;5087842;28;20040;-76
2023/09/12 09:31:45;;;;;;;23.63;11.80;;;;;;;;;;5082788;28;20060;-77
2023/09/12 09:34:15;;;;;;;17.42;11.07;;;;;;;;;;5085945;28;20024;-81
2023/09/12 09:36:46;;;;;;;20.88;11.63;;;;;;;;;;5082847;28;20031;-86
2023/09/12 09:39:12;;;;;;;21.38;12.52;;;;;;;;;;5078061;28;20084;-85
2023/09/12 09:41:38;;;;;;;25.40;12.75;;;;;;;;;;5083583;28;20024;-84
2023/09/12 09:44:08;;;;;;;19.67;11.73;;;;;;;;;;5084752;28;20099;-83
2023/09/12 09:46:34;;;;;;;18.90;11.82;;;;;;;;;;5080828;28;20032;-82
2023/09/12 09:49:00;;;;;;;21.13;11.07;;;;;;;;;;5087157;28;20016;-82
2023/09/12 09:51:26;;;;;;;18.60;10.75;;;;;;;;;;5082574;28;20081;-80
2023/09/12 09:53:52;;;;;;;19.70;9.75;;;;;;;;;;5085558;28;20099;-80
2023/09/12 09:56:17;;;;;;;17.75;10.75;;;;;;;;;;5086309;28;20020;-80
2023/09/12 09:58:52;;;;;;;17.67;10.38;;;;;;;;;;5079757;28;20044;-79
2023/09/12 10:01:20;;;;;;;22.10;10.90;;;;;;;;;;5089347;28;20020;-80
2023/09/12 10:03:49;;;;;;;21.90;10.85;;;;;;;;;;5085163;28;20105;-79
2023/09/12 10:06:17;;;;;;;18.42;11.25;;;;;;;;;;5078567;28;20029;-79
2023/09/12 10:08:45;;;;;;;20.17;10.75;;;;;;;;;;5081384;28;20019;-78
2023/09/12 10:11:14;;;;;;;19.67;11.40;;;;;;;;;;5079891;28;20528;-80
2023/09/12 10:13:43;;;;;;;20.05;11.52;;;;;;;;;;5083659;28;20084;-79
2023/09/12 10:16:09;;;;;;;20.33;12.07;;;;;;;;;;5086078;28;20047;-83
2023/09/12 10:18:45;;;;;;;20.02;11.77;;;;;;;;;;5087208;28;20070;-80
2023/09/12 10:21:19;;;;;;;25.67;13.18;;;;;;;;;;5085111;28;20073;-78
2023/09/12 10:23:45;;;;;;;24.98;12.52;;;;;;;;;;5090623;28;20031;-82
2023/09/12 10:26:13;;;;;;;22.65;13.23;;;;;;;;;;5091355;28;20103;-82
2023/09/12 10:28:42;;;;;;;25.52;13.85;;;;;;;;;;5078076;28;20021;-81
2023/09/12 10:31:11;;;;;;;26.35;14.57;;;;;;;;;;5081293;28;20017;-81
2023/09/12 10:33:36;;;;;;;24.48;13.73;;;;;;;;;;5069848;28;20024;-87
2023/09/12 10:36:06;;;;;;;25.50;14.38;;;;;;;;;;5073735;28;20016;-84
2023/09/12 10:38:47;;;;;;;22.95;13.88;;;;;;;;;;5084673;28;20028;-84
2023/09/12 10:41:16;;;;;;;26.92;14.25;;;;;;;;;;5071541;28;20321;-82
2023/09/12 10:43:43;;;;;;;25.23;13.90;;;;;;;;;;5074275;28;20039;-82
2023/09/12 10:46:09;;;;;;;24.58;14.10;;;;;;;;;;5091966;28;20054;-84
2023/09/12 10:48:36;;;;;;;26.60;14.55;;;;;;;;;;5065264;28;20021;-80
2023/09/12 10:51:05;;;;;;;25.75;14.30;;;;;;;;;;5065715;28;20594;-83
2023/09/12 10:53:34;;;;;;;25.00;13.85;;;;;;;;;;5074549;28;20024;-82
2023/09/12 10:56:01;;;;;;;24.20;13.95;;;;;;;;;;5069350;28;20025;-81
2023/09/12 10:58:27;;;;;;;21.52;12.85;;;;;;;;;;5066763;28;20091;-82
2023/09/12 11:01:21;;;;;;;22.90;13.80;;;;;;;;;;5066685;28;20017;-81
2023/09/12 11:03:47;;;;;;;23.10;12.88;;;;;;;;;;5068792;28;20120;-84
2023/09/12 11:06:23;;;;;;;19.92;12.15;;;;;;;;;;5068883;28;20048;-82
2023/09/12 11:09:13;;;;;;;22.10;12.23;;;;;;;;;;5073394;28;20024;-82
2023/09/12 11:11:39;;;;;;;27.10;13.55;;;;;;;;;;5067842;28;20062;-81
2023/09/12 11:14:06;;;;;;;21.50;12.73;;;;;;;;;;5062368;28;20028;-83
2023/09/12 11:16:32;;;;;;;20.17;11.95;;;;;;;;;;5069829;28;20028;-84
2023/09/12 11:19:23;;;;;;;24.90;13.20;;;;;;;;;;5067840;28;20023;-84
2023/09/12 11:21:53;;;;;;;24.13;12.30;;;;;;;;;;5067872;28;20101;-82
2023/09/12 11:24:20;;;;;;;21.38;12.43;;;;;;;;;;5067394;28;20024;-83
2023/09/12 11:27:08;;;;;;;17.15;10.73;;;;;;;;;;5068326;28;20354;-86
2023/09/12 11:30:20;;;;;;;16.52;9.20;;;;;;;;;;5067863;28;20039;-88
2023/09/12 11:32:47;;;;;;;17.08;9.20;;;;;;;;;;5047546;28;20123;-85
2023/09/12 11:43:56;;;;;;;20.75;11.32;;;;;;;;;;5009561;23;20106;-85
2023/09/12 11:46:33;;;;;;;19.63;11.50;;;;;;;;;;4969490;28;20061;-84
2023/09/12 11:49:01;;;;;;;18.20;10.90;;;;;;;;;;4968586;28;20026;-84
2023/09/12 11:51:26;;;;;;;15.18;10.50;;;;;;;;;;4969572;28;20027;-83
2023/09/12 11:53:53;;;;;;;17.13;10.48;;;;;;;;;;4968538;28;20042;-83
2023/09/12 11:56:21;;;;;;;17.17;9.63;;;;;;;;;;4969120;28;20496;-86
2023/09/12 11:58:49;;;;;;;14.73;9.75;;;;;;;;;;4968805;28;20054;-85
2023/09/12 12:01:17;;;;;;;16.63;10.02;;;;;;;;;;4968883;28;20069;-85
2023/09/12 12:03:45;;;;;;;14.95;9.20;;;;;;;;;;4969075;28;20126;-86
2023/09/12 12:06:10;;;;;;;12.20;7.68;;;;;;;;;;4969168;28;20235;-86
2023/09/12 12:08:36;;;;;;;11.25;7.53;;;;;;;;;;4968481;28;20753;-81
2023/09/12 12:11:02;;;;;;;10.93;6.88;;;;;;;;;;4965356;28;20062;-84
2023/09/12 12:13:30;;;;;;;11.43;7.05;;;;;;;;;;4974085;28;20019;-84
2023/09/12 12:15:56;;;;;;;10.80;7.43;;;;;;;;;;4969021;28;20027;-83
2023/09/12 12:18:21;;;;;;;12.45;7.72;;;;;;;;;;4969625;28;20065;-84
2023/09/12 12:20:47;;;;;;;12.02;7.43;;;;;;;;;;4971872;28;20412;-84
2023/09/12 12:23:12;;;;;;;11.48;7.13;;;;;;;;;;4969651;28;20035;-85
2023/09/12 12:25:38;;;;;;;10.02;6.93;;;;;;;;;;4973497;28;20038;-85
2023/09/12 12:28:04;;;;;;;11.70;6.72;;;;;;;;;;4965087;28;20401;-82
2023/09/12 12:30:34;;;;;;;10.80;6.80;;;;;;;;;;4970127;28;20034;-81
2023/09/12 12:33:02;;;;;;;11.38;6.63;;;;;;;;;;4969654;28;20031;-82
2023/09/12 12:35:28;;;;;;;9.95;5.80;;;;;;;;;;4960464;28;20031;-82
2023/09/12 12:37:56;;;;;;;8.38;5.75;;;;;;;;;;4964768;28;20042;-81
2023/09/12 12:40:21;;;;;;;8.80;5.70;;;;;;;;;;4968471;28;20503;-81
2023/09/12 12:42:47;;;;;;;7.70;4.82;;;;;;;;;;4967062;28;20047;-83
2023/09/12 12:45:14;;;;;;;7.95;4.93;;;;;;;;;;4978267;28;20026;-81
2023/09/12 12:47:39;;;;;;;5.90;4.57;;;;;;;;;;4966459;28;20111;-77
2023/09/12 12:50:12;;;;;;;8.90;4.60;;;;;;;;;;4964431;28;20202;-76
2023/09/12 12:52:39;;;;;;;5.85;4.07;;;;;;;;;;4950924;28;20086;-76
2023/09/12 12:55:10;;;;;;;8.10;4.20;;;;;;;;;;4953710;28;20027;-76
2023/09/12 12:57:37;;;;;;;8.18;4.90;;;;;;;;;;4967034;28;20081;-75
2023/09/12 13:00:10;;;;;;;7.57;4.63;;;;;;;;;;4958059;28;20062;-75
2023/09/12 13:02:40;;;;;;;6.60;4.28;;;;;;;;;;4960350;28;20027;-76
2023/09/12 13:05:20;;;;;;;6.78;4.70;;;;;;;;;;4964037;28;20059;-75
2023/09/12 13:07:45;;;;;;;6.13;4.32;;;;;;;;;;4961838;28;20023;-75
2023/09/12 13:10:13;;;;;;;7.95;5.00;;;;;;;;;;4961555;28;20138;-75
2023/09/12 13:12:38;;;;;;;7.80;4.50;;;;;;;;;;4962445;28;20026;-74
2023/09/12 13:15:04;;;;;;;7.82;4.90;;;;;;;;;;4964680;28;20081;-75
2023/09/12 13:17:30;;;;;;;7.25;4.40;;;;;;;;;;4969231;28;20227;-74
2023/09/12 13:19:56;;;;;;;7.63;4.45;;;;;;;;;;4967466;28;20031;-74
2023/09/12 13:22:21;;;;;;;7.30;4.30;;;;;;;;;;4957979;28;20058;-75
2023/09/12 13:24:47;;;;;;;7.63;4.63;;;;;;;;;;4966480;28;20042;-75
2023/09/12 13:27:13;;;;;;;8.20;4.30;;;;;;;;;;4962165;28;20023;-75
2023/09/12 13:29:38;;;;;;;7.70;4.38;;;;;;;;;;4959829;28;20033;-74
2023/09/12 13:32:04;;;;;;;6.80;4.45;;;;;;;;;;4966889;28;20341;-75
2023/09/12 13:34:29;;;;;;;6.50;4.35;;;;;;;;;;4964271;28;20030;-75
2023/09/12 13:36:55;;;;;;;7.53;4.30;;;;;;;;;;4957916;28;20090;-75
2023/09/12 13:39:20;;;;;;;9.23;4.30;;;;;;;;;;4960522;28;20221;-75
2023/09/12 13:41:45;;;;;;;8.25;4.45;;;;;;;;;;4961258;28;20074;-75
2023/09/12 13:44:11;;;;;;;9.65;4.35;;;;;;;;;;4956630;28;20110;-75
2023/09/12 13:46:36;;;;;;;8.85;4.30;;;;;;;;;;4972548;28;20538;-74
2023/09/12 13:49:03;;;;;;;5.70;4.20;;;;;;;;;;4972130;28;20021;-74
2023/09/12 13:51:29;;;;;;;6.03;3.80;;;;;;;;;;4970404;28;20027;-74
2023/09/12 13:53:54;;;;;;;6.63;4.30;;;;;;;;;;4956936;28;20035;-75
2023/09/12 13:56:19;;;;;;;7.47;4.95;;;;;;;;;;4968605;28;20077;-76
2023/09/12 13:58:45;;;;;;;8.38;4.70;;;;;;;;;;4972280;28;20031;-75
2023/09/12 14:01:10;;;;;;;6.85;4.90;;;;;;;;;;4970241;28;20019;-75
2023/09/12 14:03:35;;;;;;;8.05;4.45;;;;;;;;;;4971494;28;20053;-74
2023/09/12 14:06:01;;;;;;;5.47;4.20;;;;;;;;;;4973960;28;20042;-75
2023/09/12 14:08:26;;;;;;;5.75;4.15;;;;;;;;;;4963965;28;20066;-75
2023/09/12 14:10:52;;;;;;;7.20;4.57;;;;;;;;;;4969781;28;20816;-75
2023/09/12 14:13:17;;;;;;;6.25;4.45;;;;;;;;;;4958710;28;20023;-75
2023/09/12 14:15:43;;;;;;;6.88;4.38;;;;;;;;;;4960396;28;20431;-74
2023/09/12 14:18:08;;;;;;;9.15;4.55;;;;;;;;;;4971734;28;20065;-75
2023/09/12 14:20:33;;;;;;;7.85;4.70;;;;;;;;;;4972034;28;20054;-75
2023/09/12 14:22:59;;;;;;;7.78;5.05;;;;;;;;;;4971333;28;20027;-74
2023/09/12 14:25:24;;;;;;;7.75;5.00;;;;;;;;;;4972077;28;20537;-75
2023/09/12 14:27:49;;;;;;;8.32;5.18;;;;;;;;;;4975131;28;20034;-76
2023/09/12 14:30:15;;;;;;;8.52;4.70;;;;;;;;;;4978566;28;20271;-75
2023/09/12 14:32:40;;;;;;;8.65;5.25;;;;;;;;;;4972089;28;20350;-76
2023/09/12 14:35:07;;;;;;;8.63;5.10;;;;;;;;;;4966929;28;20058;-76
2023/09/12 14:37:32;;;;;;;10.98;5.00;;;;;;;;;;4959868;28;20038;-76
2023/09/12 14:39:58;;;;;;;7.38;5.07;;;;;;;;;;4965317;28;20149;-76
2023/09/12 14:42:23;;;;;;;8.55;5.25;;;;;;;;;;4960961;28;20562;-75
2023/09/12 14:44:49;;;;;;;8.88;5.57;;;;;;;;;;4978673;28;20033;-76